sensor_id;sensor_type;location;lat;lon;timestamp;pressure;altitude;pressure_sealevel;temperature;humidity
51239;BME280;38154;47.548;18.828;2023-03-11T00:00:11;96680.16;;;7.78;100.00
51239;BME280;38154;47.548;18.828;2023-03-11T00:02:43;96677.53;;;7.80;100.00
51239;BME280;38154;47.548;18.828;2023-03-11T00:05:13;96678.13;;;7.93;100.00
51239;BME280;38154;47.548;18.828;2023-03-11T00:07:40;96672.75;;;8.01;100.00
51239;BME280;38154;47.548;18.828;2023-03-11T00:10:07;96666.66;;;8.03;100.00
51239;BME280;38154;47.548;18.828;2023-03-11T00:12:33;96666.59;;;8.06;100.00
51239;BME280;38154;47.548;18.828;2023-03-11T00:14:59;96675.28;;;8.04;100.00
51239;BME280;38154;47.548;18.828;2023-03-11T00:17:25;96680.41;;;8.07;100.00
51239;BME280;38154;47.548;18.828;2023-03-11T00:19:51;96682.00;;;8.12;100.00
51239;BME280;38154;47.548;18.828;2023-03-11T00:22:16;96670.75;;;8.13;100.00
51239;BME280;38154;47.548;18.828;2023-03-11T00:24:42;96671.56;;;8.15;100.00
51239;BME280;38154;47.548;18.828;2023-03-11T00:27:08;96671.53;;;8.17;100.00
51239;BME280;38154;47.548;18.828;2023-03-11T00:29:34;96659.28;;;8.22;100.00
51239;BME280;38154;47.548;18.828;2023-03-11T00:32:00;96655.97;;;8.17;100.00
51239;BME280;38154;47.548;18.828;2023-03-11T00:34:26;96656.97;;;8.11;100.00
51239;BME280;38154;47.548;18.828;2023-03-11T00:36:51;96657.16;;;8.02;100.00
51239;BME280;38154;47.548;18.828;2023-03-11T00:39:17;96660.00;;;7.91;100.00
51239;BME280;38154;47.548;18.828;2023-03-11T00:41:43;96649.72;;;7.87;100.00
51239;BME280;38154;47.548;18.828;2023-03-11T00:44:09;96644.53;;;7.87;100.00
51239;BME280;38154;47.548;18.828;2023-03-11T00:46:37;96646.41;;;7.80;100.00
51239;BME280;38154;47.548;18.828;2023-03-11T00:49:03;96648.97;;;7.82;100.00
51239;BME280;38154;47.548;18.828;2023-03-11T00:51:28;96650.75;;;7.79;100.00
51239;BME280;38154;47.548;18.828;2023-03-11T00:53:54;96648.91;;;7.85;100.00
51239;BME280;38154;47.548;18.828;2023-03-11T00:56:20;96654.87;;;7.88;100.00
51239;BME280;38154;47.548;18.828;2023-03-11T00:58:46;96657.59;;;7.82;100.00
51239;BME280;38154;47.548;18.828;2023-03-11T01:01:18;96645.69;;;7.73;100.00
51239;BME280;38154;47.548;18.828;2023-03-11T01:03:45;96644.06;;;7.69;100.00
51239;BME280;38154;47.548;18.828;2023-03-11T01:06:11;96650.19;;;7.65;100.00
51239;BME280;38154;47.548;18.828;2023-03-11T01:08:38;96655.44;;;7.62;100.00
51239;BME280;38154;47.548;18.828;2023-03-11T01:11:05;96653.94;;;7.52;100.00
51239;BME280;38154;47.548;18.828;2023-03-11T01:13:32;96656.56;;;7.49;100.00
51239;BME280;38154;47.548;18.828;2023-03-11T01:15:58;96658.34;;;7.47;100.00
51239;BME280;38154;47.548;18.828;2023-03-11T01:18:24;96666.94;;;7.49;100.00
51239;BME280;38154;47.548;18.828;2023-03-11T01:20:50;96655.00;;;7.41;100.00
51239;BME280;38154;47.548;18.828;2023-03-11T01:23:17;96667.16;;;7.39;100.00
51239;BME280;38154;47.548;18.828;2023-03-11T01:25:44;96671.53;;;7.37;100.00
51239;BME280;38154;47.548;18.828;2023-03-11T01:28:10;96670.72;;;7.32;100.00
51239;BME280;38154;47.548;18.828;2023-03-11T01:30:38;96669.25;;;7.19;100.00
51239;BME280;38154;47.548;18.828;2023-03-11T01:33:05;96677.91;;;7.19;100.00
51239;BME280;38154;47.548;18.828;2023-03-11T01:35:31;96672.84;;;7.13;100.00
51239;BME280;38154;47.548;18.828;2023-03-11T01:37:58;96664.19;;;7.14;100.00
51239;BME280;38154;47.548;18.828;2023-03-11T01:42:54;96660.31;;;6.88;100.00
51239;BME280;38154;47.548;18.828;2023-03-11T01:48:01;96661.06;;;6.95;100.00
51239;BME280;38154;47.548;18.828;2023-03-11T01:50:32;96662.75;;;6.98;100.00
51239;BME280;38154;47.548;18.828;2023-03-11T01:52:59;96665.38;;;6.96;100.00
51239;BME280;38154;47.548;18.828;2023-03-11T01:55:25;96656.75;;;6.96;100.00
51239;BME280;38154;47.548;18.828;2023-03-11T01:57:53;96659.31;;;6.99;100.00
51239;BME280;38154;47.548;18.828;2023-03-11T02:00:19;96669.44;;;7.10;100.00
51239;BME280;38154;47.548;18.828;2023-03-11T02:02:51;96675.47;;;7.10;100.00
51239;BME280;38154;47.548;18.828;2023-03-11T02:05:19;96677.91;;;7.19;100.00
51239;BME280;38154;47.548;18.828;2023-03-11T02:07:46;96675.16;;;7.27;100.00
51239;BME280;38154;47.548;18.828;2023-03-11T02:10:12;96680.28;;;7.30;100.00
51239;BME280;38154;47.548;18.828;2023-03-11T02:12:39;96681.91;;;7.37;100.00
51239;BME280;38154;47.548;18.828;2023-03-11T02:15:07;96672.31;;;7.41;100.00
51239;BME280;38154;47.548;18.828;2023-03-11T02:17:35;96682.69;;;7.41;100.00
51239;BME280;38154;47.548;18.828;2023-03-11T02:22:41;96687.63;;;7.52;100.00
51239;BME280;38154;47.548;18.828;2023-03-11T02:27:58;96698.63;;;7.65;100.00
51239;BME280;38154;47.548;18.828;2023-03-11T02:30:26;96698.56;;;7.68;100.00
51239;BME280;38154;47.548;18.828;2023-03-11T02:32:52;96693.50;;;7.61;100.00
51239;BME280;38154;47.548;18.828;2023-03-11T02:35:19;96696.13;;;7.60;100.00
51239;BME280;38154;47.548;18.828;2023-03-11T02:37:47;96693.47;;;7.63;100.00
51239;BME280;38154;47.548;18.828;2023-03-11T02:42:55;96690.91;;;7.61;100.00
51239;BME280;38154;47.548;18.828;2023-03-11T02:45:24;96682.19;;;7.64;100.00
51239;BME280;38154;47.548;18.828;2023-03-11T02:47:53;96683.91;;;7.65;100.00
51239;BME280;38154;47.548;18.828;2023-03-11T02:50:20;96678.75;;;7.64;99.87
51239;BME280;38154;47.548;18.828;2023-03-11T02:52:48;96688.09;;;7.71;98.77
51239;BME280;38154;47.548;18.828;2023-03-11T02:55:14;96689.06;;;7.67;100.00
51239;BME280;38154;47.548;18.828;2023-03-11T02:57:43;96683.09;;;7.63;100.00
51239;BME280;38154;47.548;18.828;2023-03-11T03:00:10;96698.53;;;7.69;97.97
51239;BME280;38154;47.548;18.828;2023-03-11T03:02:40;96702.09;;;7.64;99.09
51239;BME280;38154;47.548;18.828;2023-03-11T03:05:07;96702.03;;;7.67;97.20
51239;BME280;38154;47.548;18.828;2023-03-11T03:07:33;96706.38;;;7.66;97.89
51239;BME280;38154;47.548;18.828;2023-03-11T03:09:59;96710.69;;;7.66;94.72
51239;BME280;38154;47.548;18.828;2023-03-11T03:12:25;96734.84;;;7.69;95.36
51239;BME280;38154;47.548;18.828;2023-03-11T03:14:51;96738.44;;;7.62;97.07
51239;BME280;38154;47.548;18.828;2023-03-11T03:17:16;96734.88;;;7.68;92.58
51239;BME280;38154;47.548;18.828;2023-03-11T03:19:42;96732.34;;;7.65;92.83
51239;BME280;38154;47.548;18.828;2023-03-11T03:22:08;96731.59;;;7.59;92.22
51239;BME280;38154;47.548;18.828;2023-03-11T03:24:34;96741.00;;;7.64;92.18
51239;BME280;38154;47.548;18.828;2023-03-11T03:27:00;96748.00;;;7.60;86.12
51239;BME280;38154;47.548;18.828;2023-03-11T03:29:26;96746.13;;;7.67;84.06
51239;BME280;38154;47.548;18.828;2023-03-11T03:31:52;96748.00;;;7.60;84.05
51239;BME280;38154;47.548;18.828;2023-03-11T03:34:18;96760.13;;;7.58;81.42
51239;BME280;38154;47.548;18.828;2023-03-11T03:36:43;96726.47;;;7.55;79.66
51239;BME280;38154;47.548;18.828;2023-03-11T03:39:09;96727.50;;;7.48;77.10
51239;BME280;38154;47.548;18.828;2023-03-11T03:41:35;96729.31;;;7.42;78.85
51239;BME280;38154;47.548;18.828;2023-03-11T03:44:01;96716.50;;;7.35;78.49
51239;BME280;38154;47.548;18.828;2023-03-11T03:46:27;96728.75;;;7.27;79.58
51239;BME280;38154;47.548;18.828;2023-03-11T03:48:53;96727.94;;;7.23;79.97
51239;BME280;38154;47.548;18.828;2023-03-11T03:51:19;96718.50;;;7.19;79.65
51239;BME280;38154;47.548;18.828;2023-03-11T03:53:45;96722.19;;;7.07;81.09
51239;BME280;38154;47.548;18.828;2023-03-11T03:56:14;96724.75;;;7.09;80.13
51239;BME280;38154;47.548;18.828;2023-03-11T03:58:40;96720.50;;;7.04;81.83
51239;BME280;38154;47.548;18.828;2023-03-11T04:01:06;96734.31;;;7.05;81.55
51239;BME280;38154;47.548;18.828;2023-03-11T04:03:33;96750.91;;;6.95;82.04
51239;BME280;38154;47.548;18.828;2023-03-11T04:06:09;96759.53;;;6.95;80.45
51239;BME280;38154;47.548;18.828;2023-03-11T04:08:36;96765.62;;;6.93;82.60
51239;BME280;38154;47.548;18.828;2023-03-11T04:11:02;96765.72;;;6.86;81.13
51239;BME280;38154;47.548;18.828;2023-03-11T04:13:28;96780.41;;;6.87;82.35
51239;BME280;38154;47.548;18.828;2023-03-11T04:15:54;96771.84;;;6.82;80.64
51239;BME280;38154;47.548;18.828;2023-03-11T04:18:21;96758.97;;;6.76;81.33
51239;BME280;38154;47.548;18.828;2023-03-11T04:20:47;96771.16;;;6.71;82.33
51239;BME280;38154;47.548;18.828;2023-03-11T04:23:13;96768.59;;;6.69;82.34
51239;BME280;38154;47.548;18.828;2023-03-11T04:25:39;96768.59;;;6.68;81.48
51239;BME280;38154;47.548;18.828;2023-03-11T04:28:05;96768.63;;;6.66;75.71
51239;BME280;38154;47.548;18.828;2023-03-11T04:30:31;96754.81;;;6.67;76.67
51239;BME280;38154;47.548;18.828;2023-03-11T04:32:57;96777.37;;;6.59;76.08
51239;BME280;38154;47.548;18.828;2023-03-11T04:35:23;96757.56;;;6.55;72.15
51239;BME280;38154;47.548;18.828;2023-03-11T04:37:49;96748.34;;;6.40;66.34
51239;BME280;38154;47.548;18.828;2023-03-11T04:40:15;96721.69;;;6.34;63.62
51239;BME280;38154;47.548;18.828;2023-03-11T04:42:41;96735.69;;;6.20;64.48
51239;BME280;38154;47.548;18.828;2023-03-11T04:45:08;96741.03;;;6.06;63.43
51239;BME280;38154;47.548;18.828;2023-03-11T04:47:35;96738.63;;;5.91;65.30
51239;BME280;38154;47.548;18.828;2023-03-11T04:50:02;96730.91;;;5.86;65.38
51239;BME280;38154;47.548;18.828;2023-03-11T04:52:28;96747.41;;;5.78;63.13
51239;BME280;38154;47.548;18.828;2023-03-11T04:54:53;96762.09;;;5.77;64.08
51239;BME280;38154;47.548;18.828;2023-03-11T04:57:19;96781.16;;;5.68;65.24
51239;BME280;38154;47.548;18.828;2023-03-11T04:59:46;96769.94;;;5.68;65.67
51239;BME280;38154;47.548;18.828;2023-03-11T05:02:12;96774.31;;;5.61;68.35
51239;BME280;38154;47.548;18.828;2023-03-11T05:04:38;96778.69;;;5.54;67.16
51239;BME280;38154;47.548;18.828;2023-03-11T05:07:04;96803.75;;;5.48;67.74
51239;BME280;38154;47.548;18.828;2023-03-11T05:09:30;96818.47;;;5.41;67.19
51239;BME280;38154;47.548;18.828;2023-03-11T05:11:56;96826.22;;;5.41;67.60
51239;BME280;38154;47.548;18.828;2023-03-11T05:14:21;96829.69;;;5.42;68.56
51239;BME280;38154;47.548;18.828;2023-03-11T05:16:47;96825.44;;;5.34;67.03
51239;BME280;38154;47.548;18.828;2023-03-11T05:19:13;96817.72;;;5.31;71.98
51239;BME280;38154;47.548;18.828;2023-03-11T05:22:11;96818.66;;;5.23;72.14
51239;BME280;38154;47.548;18.828;2023-03-11T05:24:37;96794.59;;;5.16;69.75
51239;BME280;38154;47.548;18.828;2023-03-11T05:27:04;96816.16;;;5.12;70.19
51239;BME280;38154;47.548;18.828;2023-03-11T05:29:31;96823.03;;;5.14;70.58
51239;BME280;38154;47.548;18.828;2023-03-11T05:31:56;96827.38;;;5.08;68.50
51239;BME280;38154;47.548;18.828;2023-03-11T05:34:22;96823.13;;;5.05;71.98
51239;BME280;38154;47.548;18.828;2023-03-11T05:36:48;96839.59;;;4.92;70.95
51239;BME280;38154;47.548;18.828;2023-03-11T05:39:14;96844.75;;;4.93;70.57
51239;BME280;38154;47.548;18.828;2023-03-11T05:41:40;96861.06;;;4.95;71.21
51239;BME280;38154;47.548;18.828;2023-03-11T05:44:06;96869.75;;;4.85;71.46
51239;BME280;38154;47.548;18.828;2023-03-11T05:46:32;96849.09;;;4.83;72.21
51239;BME280;38154;47.548;18.828;2023-03-11T05:48:58;96868.91;;;4.85;71.14
51239;BME280;38154;47.548;18.828;2023-03-11T05:51:25;96862.84;;;4.86;71.01
51239;BME280;38154;47.548;18.828;2023-03-11T05:53:51;96880.94;;;4.87;72.75
51239;BME280;38154;47.548;18.828;2023-03-11T05:56:19;96863.78;;;4.77;72.86
51239;BME280;38154;47.548;18.828;2023-03-11T05:58:45;96858.59;;;4.83;70.69
51239;BME280;38154;47.548;18.828;2023-03-11T06:01:14;96849.94;;;4.86;70.91
51239;BME280;38154;47.548;18.828;2023-03-11T06:03:41;96862.00;;;4.87;70.37
51239;BME280;38154;47.548;18.828;2023-03-11T06:06:09;96852.41;;;5.01;71.43
51239;BME280;38154;47.548;18.828;2023-03-11T06:08:35;96867.81;;;5.18;67.97
51239;BME280;38154;47.548;18.828;2023-03-11T06:13:28;96858.97;;;5.41;70.39
51239;BME280;38154;47.548;18.828;2023-03-11T06:15:53;96860.75;;;5.34;67.87
51239;BME280;38154;47.548;18.828;2023-03-11T06:18:20;96858.97;;;5.42;68.10
51239;BME280;38154;47.548;18.828;2023-03-11T06:20:46;96859.72;;;5.53;69.57
51239;BME280;38154;47.548;18.828;2023-03-11T06:23:11;96858.13;;;5.42;67.43
51239;BME280;38154;47.548;18.828;2023-03-11T06:25:37;96847.88;;;5.29;67.82
51239;BME280;38154;47.548;18.828;2023-03-11T06:28:03;96868.63;;;5.22;68.05
51239;BME280;38154;47.548;18.828;2023-03-11T06:30:29;96877.19;;;5.27;69.61
51239;BME280;38154;47.548;18.828;2023-03-11T06:32:55;96878.84;;;5.35;66.04
51239;BME280;38154;47.548;18.828;2023-03-11T06:35:21;96873.50;;;5.52;66.72
51239;BME280;38154;47.548;18.828;2023-03-11T06:37:47;96882.03;;;5.65;64.98
51239;BME280;38154;47.548;18.828;2023-03-11T06:40:13;96878.59;;;5.63;65.27
51239;BME280;38154;47.548;18.828;2023-03-11T06:42:40;96868.28;;;5.58;65.40
51239;BME280;38154;47.548;18.828;2023-03-11T06:45:06;96876.94;;;5.53;64.73
51239;BME280;38154;47.548;18.828;2023-03-11T06:47:32;96883.00;;;5.53;64.57
51239;BME280;38154;47.548;18.828;2023-03-11T06:49:58;96896.69;;;5.63;62.09
51239;BME280;38154;47.548;18.828;2023-03-11T06:52:24;96904.38;;;5.69;63.06
51239;BME280;38154;47.548;18.828;2023-03-11T06:54:50;96881.88;;;5.78;63.28
51239;BME280;38154;47.548;18.828;2023-03-11T06:57:16;96868.50;;;5.37;63.71
51239;BME280;38154;47.548;18.828;2023-03-11T06:59:41;96881.44;;;5.34;63.35
51239;BME280;38154;47.548;18.828;2023-03-11T07:02:11;96880.56;;;5.36;63.28
51239;BME280;38154;47.548;18.828;2023-03-11T07:04:38;96891.63;;;5.51;62.52
51239;BME280;38154;47.548;18.828;2023-03-11T07:07:04;96879.59;;;5.47;61.71
51239;BME280;38154;47.548;18.828;2023-03-11T07:09:29;96877.19;;;5.30;60.35
51239;BME280;38154;47.548;18.828;2023-03-11T07:11:55;96903.97;;;5.18;61.29
51239;BME280;38154;47.548;18.828;2023-03-11T07:14:21;96890.31;;;5.00;63.03
51239;BME280;38154;47.548;18.828;2023-03-11T07:16:48;96887.69;;;5.08;61.86
51239;BME280;38154;47.548;18.828;2023-03-11T07:19:14;96882.53;;;5.02;60.66
51239;BME280;38154;47.548;18.828;2023-03-11T07:21:40;96866.13;;;5.11;60.67
51239;BME280;38154;47.548;18.828;2023-03-11T07:24:06;96873.00;;;5.12;62.16
51239;BME280;38154;47.548;18.828;2023-03-11T07:26:33;96889.16;;;6.25;58.38
51239;BME280;38154;47.548;18.828;2023-03-11T07:29:00;96893.59;;;9.52;51.69
51239;BME280;38154;47.548;18.828;2023-03-11T07:31:28;96890.22;;;11.05;43.60
51239;BME280;38154;47.548;18.828;2023-03-11T07:33:59;96898.34;;;12.77;41.05
51239;BME280;38154;47.548;18.828;2023-03-11T07:36:26;96898.25;;;15.08;38.96
51239;BME280;38154;47.548;18.828;2023-03-11T07:38:58;96895.75;;;15.60;34.78
51239;BME280;38154;47.548;18.828;2023-03-11T07:41:25;96911.09;;;15.87;32.67
51239;BME280;38154;47.548;18.828;2023-03-11T07:43:55;96910.56;;;16.15;32.16
51239;BME280;38154;47.548;18.828;2023-03-11T07:46:22;96898.00;;;15.50;32.25
51239;BME280;38154;47.548;18.828;2023-03-11T07:48:49;96868.53;;;14.50;33.69
51239;BME280;38154;47.548;18.828;2023-03-11T07:51:18;96868.47;;;14.90;33.19
51239;BME280;38154;47.548;18.828;2023-03-11T07:53:45;96831.06;;;15.75;32.73
51239;BME280;38154;47.548;18.828;2023-03-11T07:56:13;96824.69;;;15.09;31.94
51239;BME280;38154;47.548;18.828;2023-03-11T07:58:40;96848.34;;;14.71;33.27
51239;BME280;38154;47.548;18.828;2023-03-11T08:01:09;96843.88;;;13.94;33.38
51239;BME280;38154;47.548;18.828;2023-03-11T08:03:36;96834.91;;;14.00;33.90
51239;BME280;38154;47.548;18.828;2023-03-11T08:06:02;96857.91;;;13.93;35.02
51239;BME280;38154;47.548;18.828;2023-03-11T08:08:29;96847.16;;;14.58;32.94
51239;BME280;38154;47.548;18.828;2023-03-11T08:10:54;96875.06;;;14.60;33.77
51239;BME280;38154;47.548;18.828;2023-03-11T08:13:20;96910.41;;;15.47;32.89
51239;BME280;38154;47.548;18.828;2023-03-11T08:15:46;96949.81;;;15.47;31.40
51239;BME280;38154;47.548;18.828;2023-03-11T08:18:12;96975.84;;;16.24;31.18
51239;BME280;38154;47.548;18.828;2023-03-11T08:20:38;96984.50;;;16.61;29.99
51239;BME280;38154;47.548;18.828;2023-03-11T08:23:04;97005.91;;;16.71;28.39
51239;BME280;38154;47.548;18.828;2023-03-11T08:25:31;97021.56;;;16.57;29.45
51239;BME280;38154;47.548;18.828;2023-03-11T08:27:56;96994.16;;;14.96;30.77
51239;BME280;38154;47.548;18.828;2023-03-11T08:30:22;97021.81;;;14.43;31.73
51239;BME280;38154;47.548;18.828;2023-03-11T08:32:49;97014.63;;;14.69;32.83
51239;BME280;38154;47.548;18.828;2023-03-11T08:35:15;97035.94;;;15.40;31.53
51239;BME280;38154;47.548;18.828;2023-03-11T08:37:41;97028.00;;;16.51;29.35
51239;BME280;38154;47.548;18.828;2023-03-11T08:40:08;97030.66;;;15.97;30.19
51239;BME280;38154;47.548;18.828;2023-03-11T08:42:35;97015.69;;;16.51;29.57
51239;BME280;38154;47.548;18.828;2023-03-11T08:45:01;97019.72;;;15.87;29.91
51239;BME280;38154;47.548;18.828;2023-03-11T08:47:27;97043.41;;;15.87;29.30
51239;BME280;38154;47.548;18.828;2023-03-11T08:49:53;97027.22;;;16.14;29.43
51239;BME280;38154;47.548;18.828;2023-03-11T08:52:18;97048.28;;;16.49;29.73
51239;BME280;38154;47.548;18.828;2023-03-11T08:54:44;97030.47;;;16.37;28.91
51239;BME280;38154;47.548;18.828;2023-03-11T08:57:10;97036.31;;;16.77;29.56
51239;BME280;38154;47.548;18.828;2023-03-11T08:59:36;97027.31;;;17.32;29.55
51239;BME280;38154;47.548;18.828;2023-03-11T09:02:02;97043.69;;;17.21;28.99
51239;BME280;38154;47.548;18.828;2023-03-11T09:04:28;97027.94;;;17.03;29.65
51239;BME280;38154;47.548;18.828;2023-03-11T09:06:54;97042.66;;;16.20;30.00
51239;BME280;38154;47.548;18.828;2023-03-11T09:09:20;97042.00;;;15.02;31.05
51239;BME280;38154;47.548;18.828;2023-03-11T09:11:46;97052.22;;;15.09;31.17
51239;BME280;38154;47.548;18.828;2023-03-11T09:14:13;97056.50;;;14.50;33.09
51239;BME280;38154;47.548;18.828;2023-03-11T09:16:39;97062.34;;;14.14;33.01
51239;BME280;38154;47.548;18.828;2023-03-11T09:19:05;97061.16;;;13.07;34.91
51239;BME280;38154;47.548;18.828;2023-03-11T09:21:32;97065.84;;;11.94;36.63
51239;BME280;38154;47.548;18.828;2023-03-11T09:23:58;97044.19;;;12.94;34.76
51239;BME280;38154;47.548;18.828;2023-03-11T09:26:24;97084.88;;;13.96;33.96
51239;BME280;38154;47.548;18.828;2023-03-11T09:28:50;97066.22;;;13.35;34.08
51239;BME280;38154;47.548;18.828;2023-03-11T09:31:17;97093.34;;;12.05;36.30
51239;BME280;38154;47.548;18.828;2023-03-11T09:33:44;97087.03;;;13.62;34.07
51239;BME280;38154;47.548;18.828;2023-03-11T09:36:15;97064.41;;;15.30;31.29
51239;BME280;38154;47.548;18.828;2023-03-11T09:38:42;97078.06;;;16.13;32.02
51239;BME280;38154;47.548;18.828;2023-03-11T09:52:08;97086.94;;;13.42;34.37
51239;BME280;38154;47.548;18.828;2023-03-11T09:54:48;97089.37;;;11.94;36.85
51239;BME280;38154;47.548;18.828;2023-03-11T09:57:18;97082.41;;;11.35;37.11
51239;BME280;38154;47.548;18.828;2023-03-11T09:59:46;97082.47;;;10.69;42.17
51239;BME280;38154;47.548;18.828;2023-03-11T10:02:19;97073.16;;;9.49;42.55
51239;BME280;38154;47.548;18.828;2023-03-11T10:07:38;97080.34;;;12.31;36.35
51239;BME280;38154;47.548;18.828;2023-03-11T10:10:05;97088.56;;;11.62;36.01
51239;BME280;38154;47.548;18.828;2023-03-11T10:15:48;97056.34;;;11.89;36.94
51239;BME280;38154;47.548;18.828;2023-03-11T10:18:35;97083.41;;;12.17;38.48
51239;BME280;38154;47.548;18.828;2023-03-11T10:21:52;97094.75;;;12.16;38.27
51239;BME280;38154;47.548;18.828;2023-03-11T10:24:35;97081.75;;;11.56;38.86
51239;BME280;38154;47.548;18.828;2023-03-11T10:27:12;97106.75;;;12.21;38.98
51239;BME280;38154;47.548;18.828;2023-03-11T10:32:19;97106.47;;;12.31;39.66
51239;BME280;38154;47.548;18.828;2023-03-11T10:34:54;97115.94;;;11.17;40.10
51239;BME280;38154;47.548;18.828;2023-03-11T10:37:31;97140.72;;;10.32;41.59
51239;BME280;38154;47.548;18.828;2023-03-11T10:42:44;97146.69;;;11.37;41.53
51239;BME280;38154;47.548;18.828;2023-03-11T10:45:12;97156.72;;;11.51;42.29
51239;BME280;38154;47.548;18.828;2023-03-11T10:47:39;97159.47;;;11.76;39.22
51239;BME280;38154;47.548;18.828;2023-03-11T10:50:05;97163.47;;;11.88;41.07
51239;BME280;38154;47.548;18.828;2023-03-11T10:52:42;97152.56;;;11.75;39.17
51239;BME280;38154;47.548;18.828;2023-03-11T10:55:15;97155.75;;;11.55;40.22
51239;BME280;38154;47.548;18.828;2023-03-11T10:57:44;97143.47;;;11.59;40.77
51239;BME280;38154;47.548;18.828;2023-03-11T11:00:27;97157.31;;;11.61;40.77
51239;BME280;38154;47.548;18.828;2023-03-11T11:02:54;97136.25;;;11.37;40.69
51239;BME280;38154;47.548;18.828;2023-03-11T11:08:11;97150.22;;;12.52;38.17
51239;BME280;38154;47.548;18.828;2023-03-11T11:10:51;97152.97;;;12.48;38.04
51239;BME280;38154;47.548;18.828;2023-03-11T11:13:22;97155.00;;;13.16;37.99
51239;BME280;38154;47.548;18.828;2023-03-11T11:19:17;97157.19;;;14.01;35.45
51239;BME280;38154;47.548;18.828;2023-03-11T11:21:37;97142.50;;;13.73;36.56
51239;BME280;38154;47.548;18.828;2023-03-11T11:24:19;97156.03;;;14.08;35.81
51239;BME280;38154;47.548;18.828;2023-03-11T11:29:36;97163.13;;;11.70;39.61
51239;BME280;38154;47.548;18.828;2023-03-11T11:34:59;97166.13;;;10.60;42.34
51239;BME280;38154;47.548;18.828;2023-03-11T11:37:28;97160.06;;;11.26;41.46
51239;BME280;38154;47.548;18.828;2023-03-11T11:40:03;97158.53;;;11.49;40.22
51239;BME280;38154;47.548;18.828;2023-03-11T11:42:37;97158.87;;;11.98;38.83
51239;BME280;38154;47.548;18.828;2023-03-11T11:45:13;97175.44;;;11.98;38.89
51239;BME280;38154;47.548;18.828;2023-03-11T11:47:43;97173.09;;;11.87;39.26
51239;BME280;38154;47.548;18.828;2023-03-11T11:50:17;97176.56;;;11.58;39.33
51239;BME280;38154;47.548;18.828;2023-03-11T11:52:52;97191.22;;;10.64;39.45
51239;BME280;38154;47.548;18.828;2023-03-11T11:55:23;97188.47;;;9.92;40.19
51239;BME280;38154;47.548;18.828;2023-03-11T11:57:51;97190.34;;;9.44;42.88
51239;BME280;38154;47.548;18.828;2023-03-11T12:00:21;97206.88;;;8.94;42.76
51239;BME280;38154;47.548;18.828;2023-03-11T12:05:58;97196.47;;;8.95;44.40
51239;BME280;38154;47.548;18.828;2023-03-11T12:08:37;97199.06;;;9.42;43.67
51239;BME280;38154;47.548;18.828;2023-03-11T12:17:15;97159.72;;;9.98;40.24
51239;BME280;38154;47.548;18.828;2023-03-11T12:19:50;97169.97;;;10.06;40.19
51239;BME280;38154;47.548;18.828;2023-03-11T12:27:46;97151.66;;;11.15;38.68
51239;BME280;38154;47.548;18.828;2023-03-11T12:30:34;97115.31;;;11.07;40.09
51239;BME280;38154;47.548;18.828;2023-03-11T12:33:21;97148.50;;;10.69;39.80
51239;BME280;38154;47.548;18.828;2023-03-11T12:35:54;97165.09;;;10.65;39.79
51239;BME280;38154;47.548;18.828;2023-03-11T12:38:33;97188.97;;;10.84;38.90
51239;BME280;38154;47.548;18.828;2023-03-11T12:46:11;97189.09;;;10.05;41.02
51239;BME280;38154;47.548;18.828;2023-03-11T12:48:42;97204.59;;;10.09;40.43
51239;BME280;38154;47.548;18.828;2023-03-11T12:53:58;97188.84;;;8.84;42.32
51239;BME280;38154;47.548;18.828;2023-03-11T12:56:44;97226.75;;;8.43;43.17
51239;BME280;38154;47.548;18.828;2023-03-11T13:05:16;97221.91;;;7.47;46.18
51239;BME280;38154;47.548;18.828;2023-03-11T13:07:55;97225.41;;;7.48;46.42
51239;BME280;38154;47.548;18.828;2023-03-11T13:10:37;97209.94;;;7.38;46.65
51239;BME280;38154;47.548;18.828;2023-03-11T13:15:54;97230.28;;;6.88;47.88
51239;BME280;38154;47.548;18.828;2023-03-11T13:18:40;97208.03;;;6.67;48.78
51239;BME280;38154;47.548;18.828;2023-03-11T13:21:36;97219.28;;;6.63;48.52
51239;BME280;38154;47.548;18.828;2023-03-11T13:26:47;97237.75;;;6.16;48.54
51239;BME280;38154;47.548;18.828;2023-03-11T13:29:35;97229.09;;;6.23;49.00
51239;BME280;38154;47.548;18.828;2023-03-11T13:35:02;97258.25;;;6.49;50.25
51239;BME280;38154;47.548;18.828;2023-03-11T13:40:36;97268.06;;;7.17;47.52
51239;BME280;38154;47.548;18.828;2023-03-11T13:43:19;97281.91;;;7.12;47.85
51239;BME280;38154;47.548;18.828;2023-03-11T13:45:51;97293.94;;;7.19;48.62
51239;BME280;38154;47.548;18.828;2023-03-11T13:48:25;97277.34;;;7.37;47.66
51239;BME280;38154;47.548;18.828;2023-03-11T13:51:07;97307.69;;;7.27;48.88
51239;BME280;38154;47.548;18.828;2023-03-11T13:53:44;97322.56;;;7.08;48.82
51239;BME280;38154;47.548;18.828;2023-03-11T13:56:38;97336.34;;;7.10;48.71
51239;BME280;38154;47.548;18.828;2023-03-11T13:59:26;97332.22;;;6.91;49.34
51239;BME280;38154;47.548;18.828;2023-03-11T14:01:56;97345.31;;;6.69;49.29
51239;BME280;38154;47.548;18.828;2023-03-11T14:04:31;97364.28;;;6.76;49.17
51239;BME280;38154;47.548;18.828;2023-03-11T14:06:58;97367.56;;;6.99;49.37
51239;BME280;38154;47.548;18.828;2023-03-11T14:09:26;97365.94;;;6.86;49.50
51239;BME280;38154;47.548;18.828;2023-03-11T14:11:54;97369.47;;;6.74;48.93
51239;BME280;38154;47.548;18.828;2023-03-11T14:14:50;97360.12;;;6.45;49.66
51239;BME280;38154;47.548;18.828;2023-03-11T14:17:18;97380.78;;;6.50;50.71
51239;BME280;38154;47.548;18.828;2023-03-11T14:20:05;97381.53;;;6.75;49.72
51239;BME280;38154;47.548;18.828;2023-03-11T14:22:32;97383.09;;;7.04;49.26
51239;BME280;38154;47.548;18.828;2023-03-11T14:25:01;97389.97;;;7.05;49.47
51239;BME280;38154;47.548;18.828;2023-03-11T14:27:30;97377.00;;;7.06;47.61
51239;BME280;38154;47.548;18.828;2023-03-11T14:29:56;97393.41;;;7.07;48.14
51239;BME280;38154;47.548;18.828;2023-03-11T14:32:28;97403.84;;;6.98;47.54